Pagrindinis puslapis
METAR-TAF:

METAR-TAF

Oro uostai :

Dakaras, Senegalas

platuma: 14-44N, ilguma: 017-30W, Aukštis: 27 m

Dabartinis oras

Ataskaita buvo paskelbta 2 valandos ir 18 minutes, ne 02:00 UTC
Vėjas 4 kt iš Pietvakarių
Temperatūra 24°C
Drėgmė 94%
Slėgis 1012 hPa
Matomumas 10 km arba daugiau
Su prošvaistėmis ne aukštis 1100 ft

METAR: GOOY 290200Z 22004KT 9999 BKN011 24/23 Q1012

Laikas: 04:18 (04:18 UTC)

Prognozė

Ataskaita buvo paskelbta 4 valandos ir 48 minutes, ne 23:30 UTC
Prognozė galioja nuo 29 metu 00 UTC su 30 metu 06 UTC
Vėjas 6 kt iš Vakarų
Matomumas 10 km arba daugiau
nėra debesų žemiau 1500 m ir nėra kamuolinių lietaus debesų

TAF: GOOY 282330Z 2900/3006 28006KT CAVOK

Orai ataskaitas ir orų prognozės (METAR, TAF).

turimą stotys yra geltonos ir raudonos taškus žemėlapyje.

Perkelti pele per norėdami pamatyti stoties vardą.

Tada spustelėkite, norėdami matyti oro stebėjimo ir prognozės.

Norėdami pakeisti žemėlapį: spustelėkite ant žalios mygtukų su juodo kryžiaus žemyn,; žalią mygtuką su brūkšneliu, jei norite nutolinti; arba žalių rodyklių gretimoms žemėlapius.


METAR-TAF: